createdAt,value
2018-07-06T00:01:29.071Z,4.53
2018-07-06T00:04:08.810Z,5.30
2018-07-06T00:06:48.485Z,4.30
2018-07-06T00:09:28.261Z,5.27
2018-07-06T00:12:08.020Z,5.03
2018-07-06T00:14:47.674Z,5.27
2018-07-06T00:17:27.357Z,4.70
2018-07-06T00:20:07.096Z,4.93
2018-07-06T00:22:46.809Z,4.73
2018-07-06T00:25:26.692Z,5.30
2018-07-06T00:28:06.401Z,5.13
2018-07-06T00:30:46.247Z,5.23
2018-07-06T00:33:25.864Z,4.80
2018-07-06T00:36:05.641Z,4.83
2018-07-06T00:38:45.361Z,5.23
2018-07-06T00:41:25.244Z,4.83
2018-07-06T00:44:05.085Z,5.20
2018-07-06T00:46:44.804Z,4.93
2018-07-06T00:49:24.673Z,5.07
2018-07-06T00:52:04.421Z,4.47
2018-07-06T00:54:44.119Z,4.33
2018-07-06T00:57:23.816Z,4.47
2018-07-06T01:00:03.500Z,4.57
2018-07-06T01:02:43.128Z,3.67
2018-07-06T01:05:22.792Z,3.77
2018-07-06T01:08:02.551Z,4.20
2018-07-06T01:10:42.261Z,4.20
2018-07-06T01:13:21.992Z,4.40
2018-07-06T01:16:01.590Z,4.40
2018-07-06T01:18:41.348Z,4.60
2018-07-06T01:21:21.104Z,3.87
2018-07-06T01:24:00.749Z,4.10
2018-07-06T01:26:40.501Z,3.93
2018-07-06T01:29:20.101Z,3.40
2018-07-06T01:31:59.761Z,4.17
2018-07-06T01:34:39.376Z,3.80
2018-07-06T01:37:18.977Z,3.57
2018-07-06T01:39:58.548Z,4.17
2018-07-06T01:42:38.125Z,4.40
2018-07-06T01:45:17.877Z,3.93
2018-07-06T01:47:57.560Z,4.43
2018-07-06T01:50:37.157Z,4.20
2018-07-06T01:53:16.792Z,4.20
2018-07-06T01:55:56.429Z,3.73
2018-07-06T01:58:36.214Z,4.57
2018-07-06T02:01:15.854Z,4.17
2018-07-06T02:03:55.625Z,3.30
2018-07-06T02:06:35.265Z,4.60
2018-07-06T02:09:15.014Z,4.07
2018-07-06T02:11:54.918Z,4.20
2018-07-06T02:14:34.605Z,4.30
2018-07-06T02:17:14.315Z,4.67
2018-07-06T02:19:53.930Z,4.40
2018-07-06T02:22:33.608Z,4.20
2018-07-06T02:25:13.391Z,4.63
2018-07-06T02:27:53.300Z,3.90
2018-07-06T02:30:33.027Z,4.20
2018-07-06T02:33:12.657Z,4.13
2018-07-06T02:35:52.535Z,4.20
2018-07-06T02:38:32.202Z,4.67
2018-07-06T02:41:11.946Z,4.40
2018-07-06T02:43:51.726Z,4.60
2018-07-06T02:46:31.303Z,4.20
2018-07-06T02:49:10.969Z,4.67
2018-07-06T02:51:50.719Z,4.67
2018-07-06T02:54:30.432Z,4.10
2018-07-06T02:57:10.067Z,3.50
2018-07-06T02:59:49.527Z,3.60
2018-07-06T03:02:29.315Z,3.53
2018-07-06T03:05:09.038Z,3.10
2018-07-06T03:07:48.777Z,3.40
2018-07-06T03:10:28.420Z,3.13
2018-07-06T03:13:08.145Z,2.80
2018-07-06T03:15:47.843Z,3.03
2018-07-06T03:18:27.642Z,2.80
2018-07-06T03:21:07.319Z,2.50
2018-07-06T03:23:47.101Z,2.33
2018-07-06T03:26:26.706Z,2.43
2018-07-06T03:29:06.410Z,2.00
2018-07-06T03:31:46.117Z,2.10
2018-07-06T03:34:25.868Z,1.93
2018-07-06T03:37:05.594Z,1.70
2018-07-06T03:39:45.326Z,1.47
2018-07-06T03:42:25.136Z,1.70
2018-07-06T03:45:04.938Z,1.37
2018-07-06T03:47:44.618Z,1.37
2018-07-06T03:50:24.255Z,1.57
2018-07-06T03:53:04.018Z,0.93
2018-07-06T03:55:43.700Z,1.70
2018-07-06T03:58:23.509Z,2.03
2018-07-06T04:01:03.280Z,1.60
2018-07-06T04:03:43.033Z,2.70
2018-07-06T04:06:22.675Z,2.53
2018-07-06T04:09:02.333Z,2.93
2018-07-06T04:11:41.947Z,2.67
2018-07-06T04:14:21.554Z,1.70
2018-07-06T04:17:01.321Z,2.00
2018-07-06T04:19:40.930Z,2.40
2018-07-06T04:22:22.285Z,3.30
2018-07-06T04:25:02.031Z,2.40
2018-07-06T04:27:41.742Z,1.67
2018-07-06T04:30:21.482Z,1.93
2018-07-06T04:33:01.142Z,1.70
2018-07-06T04:35:40.850Z,1.50
2018-07-06T04:38:20.533Z,1.93
2018-07-06T04:41:00.250Z,2.13
2018-07-06T04:43:40.053Z,1.67
2018-07-06T04:46:19.838Z,2.20
2018-07-06T04:48:59.544Z,2.93
2018-07-06T04:51:39.242Z,3.53
2018-07-06T04:54:19.042Z,3.03
2018-07-06T04:56:58.764Z,1.90
2018-07-06T04:59:38.607Z,2.97
2018-07-06T05:02:18.297Z,2.63
2018-07-06T05:04:52.006Z,3.40
2018-07-06T05:07:31.809Z,2.60
2018-07-06T05:10:11.626Z,2.67
2018-07-06T05:12:51.944Z,2.13
2018-07-06T05:15:31.751Z,3.00
2018-07-06T05:18:11.557Z,2.17
2018-07-06T05:20:51.274Z,2.40
2018-07-06T05:23:31.111Z,2.93
2018-07-06T05:26:10.890Z,2.50
2018-07-06T05:28:51.991Z,2.93
2018-07-06T05:31:31.822Z,3.03
2018-07-06T05:34:11.446Z,2.80
2018-07-06T05:36:51.151Z,2.40
2018-07-06T05:39:30.867Z,2.70
2018-07-06T05:42:10.654Z,2.33
2018-07-06T05:44:50.433Z,2.60
2018-07-06T05:47:30.142Z,2.60
2018-07-06T05:50:09.905Z,2.47
2018-07-06T05:52:49.714Z,2.60
2018-07-06T05:55:29.397Z,2.70
2018-07-06T05:58:09.314Z,5.30
2018-07-06T06:00:49.172Z,3.20
2018-07-06T06:03:28.837Z,2.40
2018-07-06T06:06:08.402Z,2.27
2018-07-06T06:08:35.664Z,2.83
2018-07-06T06:11:03.944Z,2.93
2018-07-06T06:13:33.206Z,3.57
2018-07-06T06:16:01.638Z,2.50
2018-07-06T06:18:29.971Z,3.00
2018-07-06T06:20:59.345Z,1.77
2018-07-06T06:23:27.698Z,1.70
2018-07-06T06:25:55.982Z,1.70
2018-07-06T06:28:24.275Z,1.47
2018-07-06T06:30:52.621Z,1.60
2018-07-06T06:33:21.026Z,1.70
2018-07-06T06:35:49.563Z,1.90
2018-07-06T06:38:17.987Z,2.00
2018-07-06T06:40:46.488Z,1.70
2018-07-06T06:43:15.004Z,2.30
2018-07-06T06:45:43.446Z,2.93
2018-07-06T06:48:11.931Z,2.27
2018-07-06T06:50:40.477Z,1.80
2018-07-06T06:53:09.166Z,1.50
2018-07-06T06:55:37.612Z,1.80
2018-07-06T06:58:06.155Z,7.57
2018-07-06T07:00:34.644Z,4.57
2018-07-06T07:03:03.271Z,2.10
2018-07-06T07:05:31.787Z,1.97
2018-07-06T07:08:00.283Z,2.20
2018-07-06T07:10:29.003Z,1.73
2018-07-06T07:12:58.540Z,2.10
2018-07-06T07:15:27.022Z,1.60
2018-07-06T07:18:01.671Z,1.60
2018-07-06T07:20:30.261Z,1.50
2018-07-06T07:22:58.779Z,2.33
2018-07-06T07:25:27.328Z,2.20
2018-07-06T07:27:55.945Z,3.07
2018-07-06T07:30:24.588Z,3.30
2018-07-06T07:32:53.135Z,2.20
2018-07-06T07:35:21.633Z,2.17
2018-07-06T07:37:50.213Z,2.30
2018-07-06T07:40:18.844Z,2.10
2018-07-06T07:42:47.398Z,2.20
2018-07-06T07:45:15.846Z,1.90
2018-07-06T07:47:44.346Z,2.20
2018-07-06T07:50:12.926Z,2.30
2018-07-06T07:52:52.700Z,2.20
2018-07-06T07:55:21.349Z,2.07
2018-07-06T07:57:53.923Z,2.50
2018-07-06T08:00:23.626Z,2.00
2018-07-06T08:02:52.126Z,2.00
2018-07-06T08:05:20.662Z,2.43
2018-07-06T08:07:49.253Z,2.20
2018-07-06T08:10:18.246Z,2.00
2018-07-06T08:12:46.819Z,2.07
2018-07-06T08:15:15.498Z,1.50
2018-07-06T08:17:44.110Z,1.93
2018-07-06T08:20:12.616Z,1.80
2018-07-06T08:22:41.084Z,1.70
2018-07-06T08:25:09.578Z,2.00
2018-07-06T08:27:38.152Z,2.13
2018-07-06T08:30:06.801Z,1.80
2018-07-06T08:32:35.211Z,2.10
2018-07-06T08:35:14.871Z,2.10
2018-07-06T08:38:09.867Z,2.07
2018-07-06T08:40:38.274Z,2.30
2018-07-06T08:43:07.016Z,2.13
2018-07-06T08:45:35.927Z,2.20
2018-07-06T08:48:04.446Z,1.90
2018-07-06T08:50:32.959Z,1.90
2018-07-06T08:53:01.469Z,2.40
2018-07-06T08:55:29.932Z,2.47
2018-07-06T08:57:59.138Z,1.77
2018-07-06T09:00:27.619Z,2.13
2018-07-06T09:02:55.792Z,1.90
2018-07-06T09:05:24.307Z,1.97
2018-07-06T09:07:52.865Z,1.90
2018-07-06T09:10:21.381Z,2.07
2018-07-06T09:12:49.868Z,2.03
2018-07-06T09:15:18.358Z,1.80
2018-07-06T09:17:46.980Z,1.83
2018-07-06T09:20:15.488Z,2.00
2018-07-06T09:22:43.935Z,1.50
2018-07-06T09:25:12.354Z,1.50
2018-07-06T09:27:40.780Z,1.67
2018-07-06T09:30:09.284Z,1.40
2018-07-06T09:32:37.884Z,1.50
2018-07-06T09:35:06.438Z,1.53
2018-07-06T09:37:35.372Z,1.33
2018-07-06T09:40:04.027Z,1.30
2018-07-06T09:42:32.517Z,1.30
2018-07-06T09:45:00.922Z,1.40
2018-07-06T09:47:29.454Z,1.53
2018-07-06T09:49:58.044Z,1.63
2018-07-06T09:52:26.579Z,1.60
2018-07-06T09:54:55.141Z,1.90
2018-07-06T09:57:23.667Z,1.63
2018-07-06T09:59:52.222Z,2.60
2018-07-06T10:02:20.830Z,2.27
2018-07-06T10:04:49.215Z,2.90
2018-07-06T10:07:17.623Z,3.00
2018-07-06T10:09:46.221Z,2.63
2018-07-06T10:12:14.699Z,2.70
2018-07-06T10:14:43.395Z,2.90
2018-07-06T10:17:11.935Z,2.37
2018-07-06T10:19:40.452Z,2.33
2018-07-06T10:22:08.863Z,2.10
2018-07-06T10:24:37.353Z,2.60
2018-07-06T10:27:05.951Z,1.73
2018-07-06T10:30:07.197Z,2.33
2018-07-06T10:32:35.702Z,2.17
2018-07-06T10:35:04.299Z,2.30
2018-07-06T10:37:32.835Z,2.67
2018-07-06T10:40:01.541Z,2.13
2018-07-06T10:42:29.854Z,1.80
2018-07-06T10:44:58.318Z,2.20
2018-07-06T10:47:26.823Z,1.70
2018-07-06T10:49:55.386Z,2.10
2018-07-06T10:52:23.807Z,1.80
2018-07-06T10:54:52.541Z,1.77
2018-07-06T10:57:21.067Z,1.93
2018-07-06T10:59:49.615Z,1.93
2018-07-06T11:02:18.020Z,2.27
2018-07-06T11:04:46.559Z,2.40
2018-07-06T11:07:15.314Z,2.17
2018-07-06T11:09:43.868Z,2.10
2018-07-06T11:12:12.420Z,2.43
2018-07-06T11:14:40.886Z,2.10
2018-07-06T11:17:09.383Z,1.97
2018-07-06T11:19:37.798Z,1.50
2018-07-06T11:22:06.284Z,1.63
2018-07-06T11:24:34.792Z,1.90
2018-07-06T11:27:03.346Z,1.97
2018-07-06T11:29:31.976Z,1.67
2018-07-06T11:32:00.595Z,1.40
2018-07-06T11:34:29.199Z,1.57
2018-07-06T11:36:57.748Z,1.50
2018-07-06T11:39:26.291Z,1.30
2018-07-06T11:41:54.712Z,1.40
2018-07-06T11:44:23.130Z,1.43
2018-07-06T11:46:51.695Z,1.20
2018-07-06T11:49:20.298Z,1.80
2018-07-06T11:51:48.891Z,1.90
2018-07-06T11:54:17.541Z,1.87
2018-07-06T11:56:45.979Z,1.80
2018-07-06T11:59:14.402Z,1.90
2018-07-06T12:01:42.835Z,1.97
2018-07-06T12:04:11.553Z,1.73
2018-07-06T12:06:39.969Z,2.33
2018-07-06T12:09:08.556Z,2.00
2018-07-06T12:11:37.000Z,2.10
2018-07-06T12:14:05.625Z,2.00
2018-07-06T12:16:34.142Z,2.10
2018-07-06T12:19:02.667Z,2.43
2018-07-06T12:21:31.480Z,4.00
2018-07-06T12:24:00.024Z,3.80
2018-07-06T12:26:28.543Z,3.70
2018-07-06T12:28:57.101Z,2.67
2018-07-06T12:31:25.659Z,2.23
2018-07-06T12:33:54.143Z,2.57
2018-07-06T12:36:22.756Z,3.77
2018-07-06T12:38:51.338Z,3.70
2018-07-06T12:41:20.077Z,3.80
2018-07-06T12:43:48.748Z,4.50
2018-07-06T12:46:17.182Z,5.30
2018-07-06T12:48:45.797Z,5.83
2018-07-06T12:51:14.304Z,5.30
2018-07-06T12:53:42.764Z,5.47
2018-07-06T12:56:11.335Z,5.20
2018-07-06T12:58:39.997Z,4.93
2018-07-06T13:01:08.406Z,4.97
2018-07-06T13:03:36.962Z,4.40
2018-07-06T13:06:05.552Z,5.13
2018-07-06T13:08:34.077Z,5.43
2018-07-06T13:11:02.488Z,4.80
2018-07-06T13:13:30.995Z,4.97
2018-07-06T13:15:59.561Z,5.23
2018-07-06T13:18:28.404Z,4.80
2018-07-06T13:20:57.209Z,5.60
2018-07-06T13:23:25.747Z,6.07
2018-07-06T13:25:54.361Z,5.90
2018-07-06T13:28:22.899Z,5.00
2018-07-06T13:30:51.439Z,5.60
2018-07-06T13:33:20.088Z,6.23
2018-07-06T13:35:48.738Z,6.17
2018-07-06T13:38:18.082Z,6.00
2018-07-06T13:40:46.607Z,6.20
2018-07-06T13:43:16.474Z,6.20
2018-07-06T13:45:45.237Z,6.37
2018-07-06T13:48:13.884Z,6.70
2018-07-06T13:50:42.494Z,6.53
2018-07-06T13:53:10.993Z,6.73
2018-07-06T13:55:40.541Z,6.70
2018-07-06T13:58:09.184Z,6.60
2018-07-06T14:00:38.206Z,6.63
2018-07-06T14:03:06.984Z,6.60
2018-07-06T14:05:35.803Z,6.80
2018-07-06T14:08:04.351Z,6.83
2018-07-06T14:10:32.888Z,7.23
2018-07-06T14:13:01.410Z,6.80
2018-07-06T14:15:30.180Z,7.63
2018-07-06T14:17:58.694Z,7.50
2018-07-06T14:20:26.854Z,7.10
2018-07-06T14:22:55.371Z,7.47
2018-07-06T14:25:23.919Z,8.03
2018-07-06T14:27:52.500Z,8.23
2018-07-06T14:30:21.084Z,9.50
2018-07-06T14:32:49.580Z,8.67
2018-07-06T14:35:18.112Z,7.80
2018-07-06T14:37:47.828Z,8.17
2018-07-06T14:40:16.413Z,8.37
2018-07-06T14:42:44.839Z,8.63
2018-07-06T14:45:13.322Z,7.97
2018-07-06T14:47:41.780Z,8.67
2018-07-06T14:50:10.294Z,7.50
2018-07-06T14:52:38.856Z,8.40
2018-07-06T14:55:07.323Z,8.50
2018-07-06T14:57:35.939Z,8.27
2018-07-06T15:00:04.674Z,8.17
2018-07-06T15:02:33.325Z,8.50
2018-07-06T15:05:01.870Z,6.27
2018-07-06T15:07:30.438Z,6.07
2018-07-06T15:09:58.911Z,5.87
2018-07-06T15:12:27.427Z,5.83
2018-07-06T15:14:56.000Z,6.10
2018-07-06T15:17:24.545Z,5.33
2018-07-06T15:19:53.189Z,6.17
2018-07-06T15:22:21.904Z,5.70
2018-07-06T15:24:50.389Z,5.53
2018-07-06T15:27:18.866Z,4.70
2018-07-06T15:29:47.454Z,4.93
2018-07-06T15:32:16.035Z,4.80
2018-07-06T15:34:44.663Z,5.17
2018-07-06T15:37:13.233Z,5.30
2018-07-06T15:39:41.875Z,4.87
2018-07-06T15:42:10.062Z,4.70
2018-07-06T15:44:38.548Z,4.53
2018-07-06T15:47:07.144Z,4.83
2018-07-06T15:49:35.879Z,4.93
2018-07-06T15:52:04.449Z,4.67
2018-07-06T15:54:33.315Z,3.83
2018-07-06T15:57:01.877Z,5.10
2018-07-06T15:59:30.419Z,4.87
2018-07-06T16:01:58.918Z,4.73
2018-07-06T16:04:27.443Z,5.03
2018-07-06T16:06:55.962Z,5.13
2018-07-06T16:09:24.486Z,5.43
2018-07-06T16:11:53.233Z,5.80
2018-07-06T16:14:21.664Z,5.13
2018-07-06T16:16:50.120Z,5.60
2018-07-06T16:19:18.716Z,5.70
2018-07-06T16:21:47.194Z,6.00
2018-07-06T16:24:15.777Z,5.53
2018-07-06T16:26:44.459Z,6.03
2018-07-06T16:29:12.946Z,6.27
2018-07-06T16:31:41.735Z,7.17
2018-07-06T16:34:10.281Z,6.03
2018-07-06T16:36:38.958Z,6.50
2018-07-06T16:39:07.396Z,6.67
2018-07-06T16:41:35.920Z,6.57
2018-07-06T16:44:04.694Z,6.33
2018-07-06T16:46:33.337Z,6.33
2018-07-06T16:49:01.870Z,6.83
2018-07-06T16:51:30.796Z,6.83
2018-07-06T16:53:59.535Z,6.50
2018-07-06T16:56:28.166Z,6.33
2018-07-06T16:58:56.391Z,6.43
2018-07-06T17:01:25.203Z,6.93
2018-07-06T17:03:53.871Z,6.17
2018-07-06T17:06:22.332Z,7.03
2018-07-06T17:08:50.880Z,6.93
2018-07-06T17:11:19.496Z,7.73
2018-07-06T17:13:48.058Z,6.93
2018-07-06T17:16:16.646Z,6.97
2018-07-06T17:18:45.164Z,7.77
2018-07-06T17:21:13.759Z,7.47
2018-07-06T17:23:42.323Z,7.47
2018-07-06T17:26:10.934Z,7.20
2018-07-06T17:28:40.077Z,7.90
2018-07-06T17:31:08.602Z,8.23
2018-07-06T17:33:37.352Z,7.97
2018-07-06T17:36:06.037Z,8.70
2018-07-06T17:38:34.662Z,9.20
2018-07-06T17:41:03.320Z,9.20
2018-07-06T17:43:32.090Z,9.10
2018-07-06T17:46:00.638Z,10.67
2018-07-06T17:48:29.204Z,10.00
2018-07-06T17:50:57.719Z,10.47
2018-07-06T17:53:26.768Z,8.90
2018-07-06T17:55:55.291Z,8.63
2018-07-06T17:58:23.465Z,9.07
2018-07-06T18:00:52.012Z,8.17
2018-07-06T18:03:20.519Z,8.40
2018-07-06T18:05:49.016Z,9.00
2018-07-06T18:08:17.498Z,8.70
2018-07-06T18:10:46.048Z,8.53
2018-07-06T18:13:14.686Z,8.83
2018-07-06T18:15:43.355Z,7.77
2018-07-06T18:18:11.994Z,8.53
2018-07-06T18:20:40.572Z,8.33
2018-07-06T18:23:09.274Z,8.77
2018-07-06T18:25:37.726Z,8.00
2018-07-06T18:28:06.246Z,6.83
2018-07-06T18:30:34.825Z,5.47
2018-07-06T18:33:03.361Z,4.63
2018-07-06T18:35:32.204Z,5.20
2018-07-06T18:38:00.814Z,4.97
2018-07-06T18:40:29.367Z,5.50
2018-07-06T18:42:57.968Z,4.70
2018-07-06T18:45:26.785Z,4.53
2018-07-06T18:47:55.240Z,4.83
2018-07-06T18:50:23.496Z,5.50
2018-07-06T18:52:52.106Z,4.73
2018-07-06T18:55:20.819Z,5.13
2018-07-06T18:57:49.509Z,5.20
2018-07-06T19:00:18.056Z,5.20
2018-07-06T19:02:46.723Z,5.63
2018-07-06T19:05:15.264Z,5.43
2018-07-06T19:07:43.813Z,6.00
2018-07-06T19:10:12.347Z,5.20
2018-07-06T19:12:40.901Z,5.97
2018-07-06T19:15:09.471Z,6.47
2018-07-06T19:17:38.049Z,6.40
2018-07-06T19:20:06.591Z,6.47
2018-07-06T19:22:35.227Z,6.60
2018-07-06T19:25:03.897Z,6.20
2018-07-06T19:27:32.611Z,6.10
2018-07-06T19:30:01.336Z,6.77
2018-07-06T19:32:30.070Z,6.67
2018-07-06T19:34:58.636Z,5.97
2018-07-06T19:37:27.175Z,6.40
2018-07-06T19:39:55.971Z,6.97
2018-07-06T19:42:24.520Z,5.70
2018-07-06T19:44:53.047Z,6.30
2018-07-06T19:47:21.563Z,6.90
2018-07-06T19:49:50.103Z,7.17
2018-07-06T19:52:18.597Z,6.73
2018-07-06T19:54:47.081Z,7.53
2018-07-06T19:57:15.626Z,7.70
2018-07-06T19:59:43.821Z,7.93
2018-07-06T20:02:12.478Z,7.23
2018-07-06T20:04:41.078Z,7.20
2018-07-06T20:07:09.672Z,7.23
2018-07-06T20:09:38.219Z,7.30
2018-07-06T20:12:06.795Z,8.80
2018-07-06T20:14:35.434Z,7.77
2018-07-06T20:17:04.033Z,9.30
2018-07-06T20:19:32.560Z,8.63
2018-07-06T20:22:01.101Z,7.40
2018-07-06T20:24:29.607Z,7.60
2018-07-06T20:26:58.197Z,7.47
2018-07-06T20:29:26.792Z,7.43
2018-07-06T20:31:55.464Z,8.03
2018-07-06T20:34:24.113Z,8.07
2018-07-06T20:36:52.784Z,8.50
2018-07-06T20:39:21.369Z,9.40
2018-07-06T20:41:50.057Z,8.17
2018-07-06T20:44:18.592Z,7.97
2018-07-06T20:46:47.154Z,7.70
2018-07-06T20:49:15.913Z,7.43
2018-07-06T20:51:44.449Z,5.90
2018-07-06T20:54:13.168Z,4.50
2018-07-06T20:56:41.680Z,3.50
2018-07-06T20:59:10.222Z,3.10
2018-07-06T21:01:38.393Z,3.07
2018-07-06T21:04:06.800Z,2.07
2018-07-06T21:06:35.360Z,2.40
2018-07-06T21:09:04.853Z,2.77
2018-07-06T21:11:33.334Z,2.40
2018-07-06T21:14:01.924Z,2.47
2018-07-06T21:16:30.506Z,2.77
2018-07-06T21:18:59.060Z,4.47
2018-07-06T21:21:27.627Z,3.97
2018-07-06T21:23:56.110Z,3.90
2018-07-06T21:26:24.580Z,4.20
2018-07-06T21:28:53.083Z,3.87
2018-07-06T21:31:21.632Z,5.20
2018-07-06T21:33:50.142Z,2.70
2018-07-06T21:36:18.775Z,2.17
2018-07-06T21:38:47.281Z,2.53
2018-07-06T21:41:15.807Z,2.20
2018-07-06T21:43:44.306Z,2.70
2018-07-06T21:46:12.723Z,3.00
2018-07-06T21:48:41.224Z,2.87
2018-07-06T21:51:09.817Z,3.40
2018-07-06T21:53:38.294Z,3.47
2018-07-06T21:56:07.019Z,3.40
2018-07-06T21:58:35.526Z,3.63
2018-07-06T22:01:03.994Z,4.47
2018-07-06T22:03:32.589Z,4.20
2018-07-06T22:06:01.096Z,4.27
2018-07-06T22:08:29.663Z,4.20
2018-07-06T22:10:58.192Z,4.63
2018-07-06T22:13:26.638Z,4.40
2018-07-06T22:15:55.159Z,6.43
2018-07-06T22:18:23.703Z,5.47
2018-07-06T22:20:52.247Z,5.53
2018-07-06T22:23:20.785Z,6.37
2018-07-06T22:25:49.284Z,6.17
2018-07-06T22:28:18.016Z,6.70
2018-07-06T22:30:46.542Z,6.87
2018-07-06T22:33:14.783Z,6.30
2018-07-06T22:35:43.264Z,7.00
2018-07-06T22:38:11.862Z,8.20
2018-07-06T22:40:40.382Z,7.00
2018-07-06T22:43:08.896Z,6.67
2018-07-06T22:45:37.450Z,8.33
2018-07-06T22:48:05.963Z,9.00
2018-07-06T22:50:34.509Z,9.30
2018-07-06T22:53:03.097Z,8.13
2018-07-06T22:55:31.576Z,8.23
2018-07-06T22:58:00.032Z,9.30
2018-07-06T23:00:28.455Z,7.90
2018-07-06T23:03:01.151Z,7.10
2018-07-06T23:05:30.903Z,7.20
2018-07-06T23:07:59.350Z,7.03
2018-07-06T23:10:27.989Z,7.60
2018-07-06T23:12:56.476Z,7.30
2018-07-06T23:15:24.978Z,8.00
2018-07-06T23:17:53.488Z,7.27
2018-07-06T23:20:22.063Z,7.90
2018-07-06T23:23:00.269Z,8.03
2018-07-06T23:25:28.856Z,8.57
2018-07-06T23:27:57.408Z,8.30
2018-07-06T23:30:26.252Z,8.33
2018-07-06T23:32:55.471Z,7.43
2018-07-06T23:35:24.285Z,8.00
2018-07-06T23:37:52.993Z,7.83
2018-07-06T23:40:21.883Z,8.87
2018-07-06T23:42:50.425Z,7.57
2018-07-06T23:45:18.954Z,8.27
2018-07-06T23:47:47.475Z,8.50
2018-07-06T23:50:16.417Z,8.73
2018-07-06T23:52:48.924Z,8.80
2018-07-06T23:55:17.721Z,9.17
2018-07-06T23:57:46.686Z,8.90
